Time;durP1;ratioP1;P1;durP2;ratioP2;P2;SDS_P1;SDS_P2;PMS_P1;PMS_P2;Temp;Humidity;BMP_temperature;BMP_pressure;BME280_temperature;BME280_humidity;BME280_pressure;Samples;Min_cycle;Max_cycle;Signal;HPM_P1;HPM_P2
2022/06/20 00:00:16;;;;;;;4.83;3.90;;;14.00;99.90;;;;;;5054360;28;20474;-62
2022/06/20 00:02:47;;;;;;;8.33;4.70;;;13.90;99.90;;;;;;5054524;28;20469;-61
2022/06/20 00:05:16;;;;;;;5.80;4.20;;;13.90;99.90;;;;;;5054443;28;20877;-61
2022/06/20 00:07:44;;;;;;;9.00;4.90;;;13.80;99.90;;;;;;5062781;28;20470;-62
2022/06/20 00:10:12;;;;;;;8.53;4.20;;;13.80;99.90;;;;;;5068219;28;20463;-61
2022/06/20 00:12:40;;;;;;;4.80;4.40;;;13.70;99.90;;;;;;5067801;28;20458;-62
2022/06/20 00:15:08;;;;;;;5.40;4.27;;;13.80;99.90;;;;;;5057275;28;20476;-62
2022/06/20 00:17:36;;;;;;;4.70;4.30;;;13.70;99.90;;;;;;5055003;28;20470;-62
2022/06/20 00:20:05;;;;;;;7.23;4.40;;;13.70;99.90;;;;;;5054771;28;20488;-62
2022/06/20 00:22:33;;;;;;;9.20;4.87;;;13.60;99.90;;;;;;5054751;28;20469;-61
2022/06/20 00:25:00;;;;;;;5.97;4.67;;;13.50;99.90;;;;;;5055740;28;20478;-61
2022/06/20 00:27:27;;;;;;;10.73;5.27;;;13.50;99.90;;;;;;5058159;28;20536;-60
2022/06/20 00:29:55;;;;;;;6.23;4.93;;;13.50;99.90;;;;;;5057634;28;20522;-63
2022/06/20 00:32:22;;;;;;;5.13;4.50;;;13.40;99.90;;;;;;5056743;28;20561;-61
2022/06/20 00:34:49;;;;;;;7.13;4.63;;;13.40;99.90;;;;;;5056553;28;20538;-62
2022/06/20 00:37:21;;;;;;;5.90;4.63;;;13.50;99.90;;;;;;5056333;28;20551;-61
2022/06/20 00:39:49;;;;;;;7.87;4.70;;;13.50;99.90;;;;;;5056234;28;20583;-61
2022/06/20 00:42:17;;;;;;;6.80;4.90;;;13.50;99.90;;;;;;5056492;28;20519;-62
2022/06/20 00:44:47;;;;;;;6.27;5.57;;;13.50;99.90;;;;;;5056197;28;20512;-62
2022/06/20 00:47:20;;;;;;;6.60;4.43;;;13.50;99.90;;;;;;5056163;28;20545;-62
2022/06/20 00:49:53;;;;;;;5.60;4.70;;;13.50;99.90;;;;;;5055336;28;20515;-63
2022/06/20 00:52:29;;;;;;;8.13;4.60;;;13.50;99.90;;;;;;5055467;28;20502;-62
2022/06/20 00:55:02;;;;;;;7.40;5.27;;;13.50;99.90;;;;;;5056763;28;20513;-62
2022/06/20 00:57:33;;;;;;;5.60;4.97;;;13.50;99.90;;;;;;5056648;28;20965;-62
2022/06/20 01:00:05;;;;;;;5.80;5.10;;;13.50;99.90;;;;;;5040406;28;20500;-62
2022/06/20 01:02:36;;;;;;;5.67;4.87;;;13.50;99.90;;;;;;5059001;28;20455;-61
2022/06/20 01:05:07;;;;;;;5.77;4.67;;;13.50;99.90;;;;;;5061047;28;20467;-63
2022/06/20 01:07:41;;;;;;;6.10;4.53;;;13.50;99.90;;;;;;5059718;28;20504;-62
2022/06/20 01:10:11;;;;;;;5.97;5.17;;;13.50;99.90;;;;;;5061229;28;20967;-63
2022/06/20 01:12:51;;;;;;;7.03;5.00;;;13.50;99.90;;;;;;5059951;28;20839;-62
2022/06/20 01:15:21;;;;;;;6.43;4.83;;;13.50;99.90;;;;;;5057612;28;20474;-63
2022/06/20 01:17:50;;;;;;;5.03;4.50;;;13.50;99.90;;;;;;5059298;28;20935;-62
2022/06/20 01:20:24;;;;;;;5.30;4.80;;;13.50;99.90;;;;;;5061595;28;20443;-62
2022/06/20 01:23:06;;;;;;;5.47;4.97;;;13.50;99.90;;;;;;5057706;28;20495;-61
2022/06/20 01:26:17;;;;;;;5.33;4.50;;;13.50;99.90;;;;;;5057010;28;20976;-65
2022/06/20 01:28:49;;;;;;;6.50;5.13;;;13.40;99.90;;;;;;5051052;28;20513;-62
2022/06/20 01:31:18;;;;;;;6.83;4.90;;;13.50;99.90;;;;;;5055725;28;20457;-63
2022/06/20 01:33:46;;;;;;;5.50;5.00;;;13.50;99.90;;;;;;5055109;28;20523;-62
2022/06/20 01:39:01;;;;;;;9.20;6.07;;;13.60;99.90;;;;;;5055633;28;20440;-61
2022/06/20 01:44:16;;;;;;;7.43;5.33;;;13.60;99.90;;;;;;5041318;28;20963;-61
2022/06/20 01:46:43;;;;;;;6.43;5.77;;;13.60;99.90;;;;;;5056000;28;20554;-62
2022/06/20 01:49:15;;;;;;;8.13;6.17;;;13.60;99.90;;;;;;5055602;28;20479;-62
2022/06/20 01:51:47;;;;;;;8.57;5.53;;;13.60;99.90;;;;;;5057603;28;20465;-62
2022/06/20 01:54:16;;;;;;;8.53;5.40;;;13.60;99.90;;;;;;5057007;28;20562;-62
2022/06/20 01:56:46;;;;;;;6.00;5.40;;;13.60;99.90;;;;;;5056291;28;20890;-62
2022/06/20 01:59:18;;;;;;;6.33;5.70;;;13.60;99.90;;;;;;5057671;28;20554;-62
2022/06/20 02:01:46;;;;;;;11.70;6.17;;;13.60;99.90;;;;;;5055339;28;20457;-62
2022/06/20 02:04:18;;;;;;;7.83;6.10;;;13.60;99.90;;;;;;5055910;28;20498;-62
2022/06/20 02:06:47;;;;;;;6.30;5.47;;;13.50;99.90;;;;;;5056910;28;20467;-63
2022/06/20 02:09:15;;;;;;;6.87;5.80;;;13.50;99.90;;;;;;5036680;28;20549;-61
2022/06/20 02:11:46;;;;;;;8.33;5.67;;;13.40;99.90;;;;;;5037417;28;20456;-62
2022/06/20 02:14:18;;;;;;;8.37;6.00;;;13.30;99.90;;;;;;5055730;28;20480;-59
2022/06/20 02:16:50;;;;;;;7.90;5.50;;;13.30;99.90;;;;;;5054425;28;20467;-62
2022/06/20 02:19:24;;;;;;;5.97;5.37;;;13.30;99.90;;;;;;5054356;28;20858;-62
2022/06/20 02:21:54;;;;;;;7.70;5.30;;;13.20;99.90;;;;;;5055046;28;20558;-63
2022/06/20 02:24:24;;;;;;;6.27;5.70;;;13.20;99.90;;;;;;5055449;28;20489;-61
2022/06/20 02:26:56;;;;;;;9.97;6.60;;;13.20;99.90;;;;;;5057096;28;20478;-62
2022/06/20 02:29:27;;;;;;;9.33;7.10;;;13.20;99.90;;;;;;5056313;28;20485;-62
2022/06/20 02:31:57;;;;;;;8.17;5.90;;;13.20;99.90;;;;;;5058660;28;20458;-59
2022/06/20 02:34:27;;;;;;;9.77;6.60;;;13.20;99.90;;;;;;5058007;28;20934;-60
2022/06/20 02:36:57;;;;;;;7.47;5.90;;;13.30;99.90;;;;;;5053733;28;21031;-62
2022/06/20 02:39:26;;;;;;;8.50;5.80;;;13.30;99.90;;;;;;5054912;28;20466;-62
2022/06/20 02:41:59;;;;;;;8.00;5.30;;;13.30;99.90;;;;;;5053705;28;20885;-60
2022/06/20 02:44:28;;;;;;;5.80;5.10;;;13.30;99.90;;;;;;5055745;28;20462;-61
2022/06/20 02:46:57;;;;;;;7.63;4.73;;;13.30;99.90;;;;;;5054854;28;20471;-62
2022/06/20 02:49:27;;;;;;;8.73;4.40;;;13.40;99.90;;;;;;5053787;28;20500;-60
2022/06/20 02:51:56;;;;;;;5.10;4.40;;;13.30;99.90;;;;;;5053151;28;20458;-62
2022/06/20 02:54:27;;;;;;;5.37;4.13;;;13.30;99.90;;;;;;5053953;28;20467;-61
2022/06/20 02:57:01;;;;;;;9.33;4.87;;;13.30;99.90;;;;;;5054890;28;20539;-61
2022/06/20 02:59:35;;;;;;;9.23;5.13;;;13.30;99.90;;;;;;5057859;28;20479;-60
2022/06/20 03:02:06;;;;;;;5.53;3.90;;;13.30;99.90;;;;;;5054629;28;20536;-61
2022/06/20 03:04:37;;;;;;;5.90;3.90;;;13.30;99.90;;;;;;5053718;28;20452;-61
2022/06/20 03:07:10;;;;;;;10.20;4.00;;;13.20;99.90;;;;;;5053628;28;20454;-60
2022/06/20 03:09:41;;;;;;;6.87;4.00;;;13.20;99.90;;;;;;5089143;22;20869;-62
2022/06/20 03:12:10;;;;;;;6.30;3.13;;;13.10;99.90;;;;;;5072949;28;20464;-62
2022/06/20 03:14:42;;;;;;;6.93;4.10;;;13.10;99.90;;;;;;5072533;28;20510;-62
2022/06/20 03:17:11;;;;;;;6.00;3.87;;;13.00;99.90;;;;;;5073427;28;20451;-62
2022/06/20 03:19:43;;;;;;;5.10;3.90;;;13.00;99.90;;;;;;5072243;28;20485;-63
2022/06/20 03:22:13;;;;;;;4.30;3.90;;;13.00;99.90;;;;;;5072991;28;20460;-63
2022/06/20 03:24:42;;;;;;;8.37;3.70;;;12.90;99.90;;;;;;5072915;28;20460;-62
2022/06/20 03:27:13;;;;;;;5.23;4.17;;;12.90;99.90;;;;;;5072536;28;20580;-62
2022/06/20 03:29:45;;;;;;;4.60;3.53;;;12.90;99.90;;;;;;5073004;28;20534;-62
2022/06/20 03:32:13;;;;;;;6.60;4.30;;;12.90;99.90;;;;;;5072693;28;21018;-60
2022/06/20 03:34:40;;;;;;;5.50;3.10;;;12.80;99.90;;;;;;5071654;28;20967;-62
2022/06/20 03:37:07;;;;;;;7.57;3.80;;;12.80;99.90;;;;;;5072012;28;21008;-62
2022/06/20 03:39:36;;;;;;;8.13;4.40;;;12.80;99.90;;;;;;5073290;28;20476;-62
2022/06/20 03:42:04;;;;;;;8.30;4.33;;;12.80;99.90;;;;;;5072328;28;20461;-62
2022/06/20 03:44:36;;;;;;;9.83;5.00;;;12.90;99.90;;;;;;5072496;28;20474;-62
2022/06/20 03:47:11;;;;;;;5.13;4.40;;;12.90;99.90;;;;;;5071952;28;20453;-62
2022/06/20 03:49:42;;;;;;;7.97;4.57;;;12.90;99.90;;;;;;5071120;28;20539;-64
2022/06/20 03:52:15;;;;;;;6.67;4.30;;;12.90;99.90;;;;;;5071675;28;20548;-63
2022/06/20 03:54:48;;;;;;;7.30;4.20;;;12.90;99.90;;;;;;5072766;28;20464;-63
2022/06/20 03:57:22;;;;;;;6.07;4.50;;;12.90;99.90;;;;;;5072255;28;20453;-61
2022/06/20 03:59:55;;;;;;;6.53;4.53;;;13.00;99.90;;;;;;5071929;28;20526;-62
2022/06/20 04:02:28;;;;;;;6.47;4.43;;;13.00;99.90;;;;;;5072569;28;20888;-62
2022/06/20 04:05:00;;;;;;;9.63;5.07;;;13.10;99.90;;;;;;5071547;28;20461;-61
2022/06/20 04:12:48;;;;;;;9.00;5.43;;;13.10;99.90;;;;;;5099831;28;20815;-62
2022/06/20 04:15:22;;;;;;;10.63;5.33;;;13.10;99.90;;;;;;5108972;28;20523;-62
2022/06/20 04:20:45;;;;;;;10.13;5.30;;;13.20;99.90;;;;;;5111370;28;20435;-63
2022/06/20 04:23:19;;;;;;;10.17;5.53;;;13.30;99.90;;;;;;5091343;28;20503;-63
2022/06/20 04:25:53;;;;;;;6.93;5.30;;;13.30;99.90;;;;;;5089912;28;20568;-63
2022/06/20 04:28:27;;;;;;;8.00;6.93;;;13.30;99.90;;;;;;5104910;28;20466;-63
2022/06/20 04:30:58;;;;;;;5.60;5.13;;;13.20;99.90;;;;;;5100491;28;20465;-63
2022/06/20 04:33:29;;;;;;;6.70;4.80;;;13.10;99.90;;;;;;5108320;28;20463;-63
2022/06/20 04:36:14;;;;;;;9.67;5.30;;;13.00;99.90;;;;;;5102115;28;20499;-66
2022/06/20 04:38:46;;;;;;;8.53;5.27;;;12.90;99.90;;;;;;5102039;28;20473;-63
2022/06/20 04:41:21;;;;;;;9.90;5.47;;;12.90;99.90;;;;;;5109997;28;20457;-61
2022/06/20 04:43:53;;;;;;;9.13;5.97;;;12.80;99.90;;;;;;5096640;28;20480;-63
2022/06/20 04:46:25;;;;;;;11.90;6.10;;;12.80;99.90;;;;;;5108738;28;20433;-66
2022/06/20 04:48:53;;;;;;;9.83;6.70;;;12.80;99.90;;;;;;5109846;28;20480;-63
2022/06/20 04:51:27;;;;;;;10.90;7.60;;;12.90;99.90;;;;;;5120607;28;20517;-62
2022/06/20 04:53:55;;;;;;;9.37;6.57;;;12.90;99.90;;;;;;5110278;28;20636;-65
2022/06/20 04:56:26;;;;;;;9.30;5.77;;;12.90;99.90;;;;;;5127543;28;20492;-63
2022/06/20 04:58:58;;;;;;;7.93;5.43;;;12.90;99.90;;;;;;5122434;28;20565;-62
2022/06/20 05:01:28;;;;;;;7.77;4.97;;;12.90;99.90;;;;;;5111612;28;20517;-65
2022/06/20 05:04:01;;;;;;;6.27;4.70;;;12.90;99.90;;;;;;5111925;28;20516;-63
2022/06/20 05:06:31;;;;;;;8.30;4.20;;;12.90;99.90;;;;;;5104207;28;20429;-64
2022/06/20 05:09:04;;;;;;;7.43;4.67;;;13.00;99.90;;;;;;5101758;28;21267;-63
2022/06/20 05:11:36;;;;;;;9.13;5.03;;;13.00;99.90;;;;;;5112422;28;20472;-63
2022/06/20 05:14:09;;;;;;;5.40;3.27;;;13.00;99.90;;;;;;5110672;28;20945;-63
2022/06/20 05:16:42;;;;;;;6.17;3.73;;;13.00;99.90;;;;;;5110006;28;20460;-62
2022/06/20 05:19:14;;;;;;;6.13;3.00;;;13.00;99.90;;;;;;5099916;28;20484;-62
2022/06/20 05:21:46;;;;;;;9.10;3.77;;;13.00;99.90;;;;;;5084383;28;20481;-62
2022/06/20 05:24:16;;;;;;;6.27;3.93;;;13.00;99.90;;;;;;5092997;28;20440;-60
2022/06/20 05:26:47;;;;;;;7.80;3.80;;;12.90;99.90;;;;;;5099361;28;20534;-62
2022/06/20 05:29:19;;;;;;;8.00;4.23;;;12.90;99.90;;;;;;5100213;28;20518;-61
2022/06/20 05:31:52;;;;;;;8.37;4.57;;;12.90;99.90;;;;;;5099863;28;20439;-63
2022/06/20 05:34:24;;;;;;;4.20;3.40;;;13.00;99.90;;;;;;5092352;28;20469;-66
2022/06/20 05:36:59;;;;;;;4.97;3.97;;;13.00;99.90;;;;;;5081443;28;20457;-62
2022/06/20 05:39:30;;;;;;;6.47;4.10;;;13.10;99.90;;;;;;5096509;28;20868;-62
2022/06/20 05:42:00;;;;;;;4.47;3.30;;;13.10;99.90;;;;;;5097044;28;20771;-61
2022/06/20 05:44:27;;;;;;;10.17;3.87;;;13.20;99.90;;;;;;5095707;28;20448;-61
2022/06/20 05:47:00;;;;;;;10.90;3.93;;;13.10;99.90;;;;;;5095838;28;20644;-61
2022/06/20 05:49:37;;;;;;;6.03;3.33;;;13.10;99.90;;;;;;5096552;28;20861;-61
2022/06/20 05:52:09;;;;;;;6.67;3.30;;;13.10;99.90;;;;;;5095592;28;20739;-63
2022/06/20 05:54:52;;;;;;;4.10;3.20;;;13.10;99.90;;;;;;5086125;28;20802;-61
2022/06/20 05:57:23;;;;;;;5.60;3.57;;;13.10;99.90;;;;;;5088313;28;20461;-60
2022/06/20 05:59:55;;;;;;;14.37;4.10;;;13.10;99.90;;;;;;5090258;28;20829;-61
2022/06/20 06:02:27;;;;;;;11.57;4.20;;;13.10;99.90;;;;;;5081958;28;20975;-64
2022/06/20 06:05:03;;;;;;;5.93;3.60;;;12.90;99.90;;;;;;5081293;28;20972;-61
2022/06/20 06:07:36;;;;;;;10.97;3.77;;;12.70;99.90;;;;;;5075092;28;20828;-61
2022/06/20 06:10:16;;;;;;;7.27;3.93;;;12.50;99.90;;;;;;5084986;28;20486;-63
2022/06/20 06:12:50;;;;;;;14.60;4.93;;;12.30;99.90;;;;;;5095496;28;20431;-62
2022/06/20 06:15:32;;;;;;;8.83;4.17;;;12.20;99.90;;;;;;5097805;28;20454;-62
2022/06/20 06:18:04;;;;;;;8.90;4.40;;;12.20;99.90;;;;;;5094956;28;20443;-61
2022/06/20 06:20:33;;;;;;;5.40;3.67;;;12.20;99.90;;;;;;5094718;28;20556;-61
2022/06/20 06:23:05;;;;;;;14.87;4.80;;;12.30;99.90;;;;;;5094775;28;20498;-61
2022/06/20 06:25:37;;;;;;;6.87;4.07;;;12.40;99.90;;;;;;5084782;28;20463;-62
2022/06/20 06:28:12;;;;;;;7.27;4.03;;;12.50;99.90;;;;;;5095157;28;20429;-63
2022/06/20 06:30:44;;;;;;;15.00;5.00;;;12.60;99.90;;;;;;5094551;28;20425;-62
2022/06/20 06:33:20;;;;;;;11.10;4.50;;;12.70;99.90;;;;;;5094523;28;20448;-62
2022/06/20 06:35:54;;;;;;;9.37;3.60;;;12.80;99.90;;;;;;5095195;28;20427;-61
2022/06/20 06:38:26;;;;;;;7.30;4.43;;;12.90;99.90;;;;;;5095304;28;20433;-61
2022/06/20 06:40:55;;;;;;;7.87;4.10;;;13.00;99.90;;;;;;5093988;28;20527;-61
2022/06/20 06:43:27;;;;;;;9.00;3.40;;;13.10;99.90;;;;;;5099893;28;20462;-61
2022/06/20 06:45:57;;;;;;;7.90;3.83;;;13.10;99.90;;;;;;5099129;28;20969;-60
2022/06/20 06:48:32;;;;;;;7.00;3.70;;;13.20;99.90;;;;;;5080769;28;20829;-62
2022/06/20 06:51:07;;;;;;;8.03;3.40;;;13.30;99.90;;;;;;5085393;28;20458;-62
2022/06/20 06:53:39;;;;;;;12.90;4.23;;;13.40;99.90;;;;;;5075191;28;20845;-62
2022/06/20 06:56:13;;;;;;;7.40;2.83;;;13.50;99.90;;;;;;5074573;28;20459;-63
2022/06/20 06:58:47;;;;;;;8.10;3.60;;;13.60;99.90;;;;;;5079872;28;20506;-62
2022/06/20 07:01:19;;;;;;;9.87;3.80;;;13.70;99.90;;;;;;5078043;28;20577;-62
2022/06/20 07:03:51;;;;;;;10.53;4.20;;;13.80;99.90;;;;;;5094014;28;20488;-61
2022/06/20 07:06:25;;;;;;;9.93;3.63;;;13.90;99.90;;;;;;5093288;28;20491;-67
2022/06/20 07:08:58;;;;;;;9.47;3.80;;;14.10;99.90;;;;;;5092795;28;20489;-61
2022/06/20 07:11:27;;;;;;;6.90;2.73;;;14.10;99.90;;;;;;5091960;28;20466;-63
2022/06/20 07:14:02;;;;;;;6.77;2.93;;;14.10;99.90;;;;;;5085443;28;20817;-59
2022/06/20 07:16:35;;;;;;;8.40;2.77;;;14.20;99.90;;;;;;5073672;28;20480;-62
2022/06/20 07:19:06;;;;;;;7.37;3.00;;;14.20;99.90;;;;;;5073698;28;20859;-62
2022/06/20 07:21:34;;;;;;;7.73;2.73;;;14.20;99.90;;;;;;5090361;28;20446;-60
2022/06/20 07:24:05;;;;;;;5.70;2.67;;;14.20;99.90;;;;;;5074468;28;20451;-61
2022/06/20 07:26:42;;;;;;;5.33;2.73;;;14.30;99.90;;;;;;5076343;28;20458;-60
2022/06/20 07:29:17;;;;;;;6.17;3.23;;;14.40;99.90;;;;;;5089996;28;20489;-60
2022/06/20 07:31:48;;;;;;;5.53;2.33;;;14.50;99.90;;;;;;5090625;28;20995;-60
2022/06/20 07:34:20;;;;;;;11.00;3.07;;;14.60;99.90;;;;;;5073380;28;20980;-60
2022/06/20 07:36:53;;;;;;;10.30;3.00;;;14.60;99.90;;;;;;5089723;28;20468;-61
2022/06/20 07:39:25;;;;;;;8.37;2.97;;;14.70;99.90;;;;;;5093272;28;20462;-61
2022/06/20 07:41:58;;;;;;;6.60;2.50;;;14.70;99.90;;;;;;5093575;28;20952;-61
2022/06/20 07:44:32;;;;;;;4.13;2.27;;;14.90;99.90;;;;;;5084558;28;20795;-60
2022/06/20 07:47:06;;;;;;;9.80;3.40;;;14.90;99.90;;;;;;5092978;28;20434;-62
2022/06/20 07:49:37;;;;;;;7.80;3.20;;;14.90;99.90;;;;;;5087758;28;20573;-61
2022/06/20 07:52:10;;;;;;;4.80;2.10;;;15.10;99.90;;;;;;5074301;28;20455;-63
2022/06/20 07:54:43;;;;;;;6.10;2.90;;;15.40;99.90;;;;;;5088509;28;20492;-62
2022/06/20 07:57:15;;;;;;;7.77;3.20;;;15.60;99.90;;;;;;5078808;28;20456;-60
2022/06/20 07:59:48;;;;;;;4.90;3.57;;;15.80;99.90;;;;;;5086910;28;20492;-59
2022/06/20 08:02:21;;;;;;;8.47;3.00;;;16.00;99.90;;;;;;5083764;28;20420;-61
2022/06/20 08:04:53;;;;;;;7.20;3.90;;;16.00;99.90;;;;;;5093504;28;20426;-59
2022/06/20 08:07:26;;;;;;;8.80;4.67;;;16.10;99.90;;;;;;5088500;28;20455;-60
2022/06/20 08:09:58;;;;;;;6.33;4.70;;;16.10;99.90;;;;;;5088855;28;20491;-63
2022/06/20 08:12:30;;;;;;;8.10;4.00;;;16.10;99.90;;;;;;5093785;28;20527;-63
2022/06/20 08:15:03;;;;;;;6.90;4.30;;;16.00;99.90;;;;;;5091954;28;20845;-62
2022/06/20 08:17:32;;;;;;;6.13;4.27;;;16.00;99.90;;;;;;5092662;28;20478;-65
2022/06/20 08:20:00;;;;;;;9.37;4.87;;;15.90;99.90;;;;;;5078272;28;20994;-63
2022/06/20 08:22:33;;;;;;;7.80;3.90;;;15.90;99.90;;;;;;5072781;28;20471;-62
2022/06/20 08:25:07;;;;;;;15.70;6.00;;;15.90;99.90;;;;;;5073135;28;20504;-63
2022/06/20 08:27:42;;;;;;;6.30;4.03;;;16.00;99.90;;;;;;5080869;28;20528;-63
2022/06/20 08:30:14;;;;;;;5.77;4.20;;;16.10;99.40;;;;;;5072884;28;21036;-63
2022/06/20 08:32:54;;;;;;;8.50;3.97;;;16.30;98.60;;;;;;5090472;28;20488;-65
2022/06/20 08:35:28;;;;;;;7.97;4.40;;;16.40;98.10;;;;;;5092356;28;20441;-62
2022/06/20 08:37:59;;;;;;;9.60;3.90;;;16.40;97.60;;;;;;5092935;28;20420;-64
2022/06/20 08:40:56;;;;;;;8.07;4.70;;;16.40;97.30;;;;;;5092727;28;20971;-65
2022/06/20 08:43:49;;;;;;;7.77;3.43;;;16.40;97.10;;;;;;5085578;28;20875;-62
2022/06/20 08:46:45;;;;;;;5.87;3.50;;;16.40;96.20;;;;;;5083571;28;20455;-63
2022/06/20 08:49:53;;;;;;;5.50;2.93;;;16.40;96.10;;;;;;5073367;28;20999;-63
2022/06/20 08:52:56;;;;;;;9.97;3.00;;;16.50;95.70;;;;;;5072969;28;20937;-64
2022/06/20 08:55:43;;;;;;;6.80;2.57;;;16.60;94.90;;;;;;5076406;28;20517;-63
2022/06/20 08:58:20;;;;;;;9.73;2.70;;;16.70;94.50;;;;;;5095065;28;21016;-63
2022/06/20 09:00:56;;;;;;;7.00;3.10;;;17.00;94.00;;;;;;5096427;28;20997;-63
2022/06/20 09:04:09;;;;;;;10.77;3.30;;;17.20;92.70;;;;;;5096284;28;20440;-64
2022/06/20 09:07:17;;;;;;;8.37;2.97;;;17.20;91.80;;;;;;5096837;28;20441;-63
2022/06/20 09:10:26;;;;;;;4.13;2.57;;;17.40;91.90;;;;;;5064183;28;20572;-62
2022/06/20 09:13:16;;;;;;;6.37;2.23;;;17.60;90.80;;;;;;5082691;28;20915;-64
2022/06/20 09:15:52;;;;;;;5.60;2.80;;;17.70;90.00;;;;;;5092833;28;20494;-65
2022/06/20 09:18:38;;;;;;;5.57;2.53;;;17.80;89.40;;;;;;5085615;28;20444;-64
2022/06/20 09:21:18;;;;;;;6.70;3.10;;;17.80;89.00;;;;;;5091541;28;21023;-64
2022/06/20 09:24:10;;;;;;;7.87;2.90;;;17.70;88.60;;;;;;5083917;28;20454;-64
2022/06/20 09:26:44;;;;;;;7.53;2.50;;;17.50;88.90;;;;;;5082761;28;20461;-63
2022/06/20 09:29:47;;;;;;;7.47;2.53;;;17.50;89.30;;;;;;5086830;28;20465;-63
2022/06/20 09:32:56;;;;;;;10.17;3.43;;;17.60;88.90;;;;;;5076113;28;20525;-63
2022/06/20 09:35:42;;;;;;;5.20;2.33;;;17.70;88.00;;;;;;5087275;28;20466;-63
2022/06/20 09:38:44;;;;;;;6.60;2.90;;;17.80;86.80;;;;;;5106274;28;20430;-63
2022/06/20 09:41:22;;;;;;;6.10;2.67;;;17.70;86.50;;;;;;5112982;28;20437;-64
2022/06/20 09:44:00;;;;;;;8.30;2.50;;;17.60;87.10;;;;;;5106936;28;20430;-64
2022/06/20 09:46:40;;;;;;;6.03;3.63;;;17.50;86.90;;;;;;5111454;28;20434;-64
2022/06/20 09:49:18;;;;;;;6.27;2.63;;;17.40;87.10;;;;;;5086102;28;20455;-63
2022/06/20 09:51:54;;;;;;;5.27;2.10;;;17.40;87.40;;;;;;5092993;28;20470;-63
2022/06/20 09:54:29;;;;;;;8.17;1.77;;;17.50;87.80;;;;;;5104221;28;20418;-63
2022/06/20 09:57:08;;;;;;;5.07;2.03;;;17.60;84.70;;;;;;5105471;28;20523;-62
2022/06/20 09:59:43;;;;;;;8.77;2.60;;;17.80;83.70;;;;;;5100400;28;20474;-63
2022/06/20 10:02:17;;;;;;;6.70;2.70;;;18.10;82.90;;;;;;5100137;28;20872;-63
2022/06/20 10:04:51;;;;;;;8.23;2.63;;;18.50;82.10;;;;;;5081265;28;20890;-61
2022/06/20 10:07:28;;;;;;;5.93;2.40;;;18.90;80.70;;;;;;5080002;28;20461;-61
2022/06/20 10:10:05;;;;;;;11.03;3.13;;;19.30;78.30;;;;;;5078339;28;20553;-61
2022/06/20 10:12:41;;;;;;;6.07;2.13;;;19.50;76.00;;;;;;5093885;28;20723;-61
2022/06/20 10:15:18;;;;;;;3.97;2.00;;;19.50;74.90;;;;;;5095968;28;20440;-64
2022/06/20 10:17:55;;;;;;;5.10;1.90;;;19.40;73.80;;;;;;5091593;28;20484;-62
2022/06/20 10:20:32;;;;;;;6.17;2.40;;;19.40;72.70;;;;;;5089978;28;20464;-62
2022/06/20 10:23:10;;;;;;;6.00;1.97;;;19.40;71.40;;;;;;5095469;28;20433;-63
2022/06/20 10:25:57;;;;;;;4.83;2.77;;;19.30;70.80;;;;;;5093513;28;20464;-62
2022/06/20 10:28:31;;;;;;;6.60;2.07;;;19.30;70.80;;;;;;5095674;28;20864;-63
2022/06/20 10:31:08;;;;;;;3.40;2.37;;;19.40;70.30;;;;;;5099290;28;20467;-65
2022/06/20 10:33:48;;;;;;;7.00;2.50;;;19.40;69.40;;;;;;5102252;28;20434;-62
2022/06/20 10:36:21;;;;;;;4.03;2.13;;;19.40;68.50;;;;;;5105075;28;20428;-63
2022/06/20 10:39:09;;;;;;;8.50;2.60;;;19.50;67.00;;;;;;5105091;28;20479;-63
2022/06/20 10:41:50;;;;;;;4.43;1.80;;;19.60;65.70;;;;;;5089358;28;20847;-64
2022/06/20 10:44:25;;;;;;;3.90;2.00;;;19.90;62.50;;;;;;5091110;28;20445;-62
2022/06/20 10:47:04;;;;;;;2.70;1.50;;;20.20;59.10;;;;;;5079098;28;20502;-61
2022/06/20 10:50:00;;;;;;;4.13;1.83;;;20.50;57.40;;;;;;5079052;28;20515;-62
2022/06/20 10:52:56;;;;;;;4.37;1.60;;;20.40;56.30;;;;;;5094691;28;20558;-63
2022/06/20 10:55:37;;;;;;;5.33;2.27;;;20.10;55.50;;;;;;5094783;28;20476;-63
2022/06/20 10:58:20;;;;;;;3.00;1.93;;;19.80;55.50;;;;;;5095893;28;20484;-63
2022/06/20 11:00:53;;;;;;;2.80;2.03;;;19.60;55.80;;;;;;5094569;28;20927;-62
2022/06/20 11:03:51;;;;;;;6.20;2.87;;;19.50;54.20;;;;;;5095548;28;20533;-63
2022/06/20 11:06:29;;;;;;;6.30;2.57;;;19.30;53.30;;;;;;5095912;28;20444;-62
2022/06/20 11:09:06;;;;;;;2.17;1.97;;;19.20;53.10;;;;;;5079794;28;20519;-63
2022/06/20 11:11:42;;;;;;;2.90;1.87;;;19.20;52.90;;;;;;5095658;28;20479;-62
2022/06/20 11:14:21;;;;;;;4.00;1.90;;;19.10;52.60;;;;;;5093556;28;20436;-65
2022/06/20 11:17:01;;;;;;;2.33;1.50;;;19.00;52.80;;;;;;5093005;28;20471;-62
2022/06/20 11:19:38;;;;;;;2.17;1.63;;;19.40;52.90;;;;;;5091671;28;20909;-64
2022/06/20 11:22:22;;;;;;;1.50;1.40;;;19.90;52.10;;;;;;5095324;28;20430;-62
2022/06/20 11:24:56;;;;;;;2.63;1.60;;;20.20;50.80;;;;;;5093931;28;20949;-60
2022/06/20 11:27:43;;;;;;;3.20;1.73;;;20.40;48.90;;;;;;5094679;28;20430;-63
2022/06/20 11:30:19;;;;;;;3.07;1.77;;;20.50;47.10;;;;;;5094704;28;20533;-62
2022/06/20 11:33:11;;;;;;;3.27;2.03;;;20.50;47.10;;;;;;5099810;28;20461;-63
2022/06/20 11:35:49;;;;;;;1.77;1.40;;;20.90;46.80;;;;;;5094036;28;20442;-61
2022/06/20 11:38:37;;;;;;;2.30;1.70;;;21.10;46.20;;;;;;5084846;28;20455;-62
2022/06/20 11:41:10;;;;;;;3.30;2.07;;;21.20;46.10;;;;;;5095090;28;20436;-61
2022/06/20 11:44:11;;;;;;;4.47;2.17;;;21.20;45.90;;;;;;5088389;28;20446;-62
2022/06/20 11:47:03;;;;;;;3.50;2.10;;;21.10;46.40;;;;;;5093863;28;20807;-63
2022/06/20 11:49:44;;;;;;;3.27;1.70;;;21.10;46.60;;;;;;5077566;28;20464;-66
2022/06/20 11:52:17;;;;;;;4.20;2.20;;;21.10;46.10;;;;;;5077684;28;20846;-66
2022/06/20 11:54:51;;;;;;;3.63;1.83;;;21.20;46.10;;;;;;5080436;28;20479;-66
2022/06/20 11:57:26;;;;;;;3.20;2.27;;;21.30;45.30;;;;;;5075121;28;20456;-66
2022/06/20 12:00:00;;;;;;;2.13;1.93;;;21.40;44.70;;;;;;5073844;28;20463;-67
2022/06/20 12:02:42;;;;;;;2.00;1.40;;;21.90;44.00;;;;;;5095981;28;20464;-64
2022/06/20 12:05:41;;;;;;;2.80;1.80;;;22.60;42.80;;;;;;5093907;28;20449;-65
2022/06/20 12:08:26;;;;;;;6.97;2.53;;;23.10;41.30;;;;;;5076507;28;20468;-66
2022/06/20 12:10:56;;;;;;;5.17;2.20;;;23.20;40.50;;;;;;5073386;28;20554;-65
2022/06/20 12:13:39;;;;;;;5.40;2.20;;;23.00;40.40;;;;;;5090626;28;20488;-67
2022/06/20 12:16:16;;;;;;;3.90;2.20;;;22.60;41.10;;;;;;5073233;28;20833;-66
2022/06/20 12:24:34;;;;;;;3.20;2.20;;;23.90;39.90;;;;;;5082054;28;20430;-65
2022/06/20 12:27:01;;;;;;;3.20;2.20;;;23.90;39.20;;;;;;5093251;28;20438;-65
2022/06/20 12:29:36;;;;;;;7.03;2.23;;;23.50;39.30;;;;;;5081109;28;20481;-65
2022/06/20 12:32:11;;;;;;;5.60;3.13;;;22.80;40.10;;;;;;5097373;28;20468;-64
2022/06/20 12:34:54;;;;;;;3.17;2.20;;;22.30;41.10;;;;;;5097419;28;20429;-64
2022/06/20 12:37:33;;;;;;;3.00;2.60;;;22.00;42.10;;;;;;5097953;28;20436;-64
2022/06/20 12:40:06;;;;;;;7.03;2.60;;;22.20;42.20;;;;;;5099953;28;20459;-65
2022/06/20 12:42:45;;;;;;;5.50;2.57;;;22.20;42.20;;;;;;5099215;28;20437;-64
2022/06/20 12:45:45;;;;;;;5.77;3.00;;;22.20;42.20;;;;;;5099163;28;20437;-64
2022/06/20 12:48:26;;;;;;;2.53;2.33;;;22.10;42.40;;;;;;5099702;28;20437;-66
2022/06/20 12:51:02;;;;;;;6.33;2.47;;;22.30;42.60;;;;;;5102490;28;20465;-65
2022/06/20 12:53:53;;;;;;;5.03;2.63;;;22.40;42.40;;;;;;5102749;28;20430;-64
2022/06/20 12:56:36;;;;;;;3.40;2.37;;;22.60;41.90;;;;;;5099653;28;20510;-65
2022/06/20 12:59:35;;;;;;;3.27;2.43;;;22.70;41.30;;;;;;5100329;28;20466;-64
2022/06/20 13:02:11;;;;;;;2.73;2.20;;;22.90;40.90;;;;;;5098810;28;20894;-65
2022/06/20 13:05:07;;;;;;;2.83;2.03;;;22.90;40.40;;;;;;5099366;28;20429;-65
2022/06/20 13:07:56;;;;;;;3.83;3.00;;;22.90;40.20;;;;;;5097482;28;20517;-65
2022/06/20 13:10:41;;;;;;;3.30;2.97;;;22.90;39.40;;;;;;5097558;28;20466;-64
2022/06/20 13:13:40;;;;;;;4.67;3.30;;;22.60;39.20;;;;;;5097358;28;20438;-63
2022/06/20 13:16:17;;;;;;;3.60;2.40;;;22.50;39.40;;;;;;5096860;28;20438;-66
2022/06/20 13:19:16;;;;;;;5.17;2.10;;;22.40;39.50;;;;;;5097011;28;20469;-65
2022/06/20 13:21:48;;;;;;;2.90;1.80;;;22.40;39.00;;;;;;5094371;28;20525;-64
2022/06/20 13:24:40;;;;;;;3.90;2.13;;;22.40;38.70;;;;;;5096791;28;20429;-66
2022/06/20 13:27:21;;;;;;;3.73;2.10;;;22.30;38.80;;;;;;5096441;28;20476;-66
2022/06/20 13:29:54;;;;;;;4.17;2.20;;;22.10;39.00;;;;;;5096111;28;20469;-63
2022/06/20 13:32:30;;;;;;;2.70;2.10;;;21.80;39.10;;;;;;5095896;28;20468;-66
2022/06/20 13:35:05;;;;;;;6.67;2.60;;;21.70;39.50;;;;;;5096758;28;20826;-64
2022/06/20 13:37:46;;;;;;;4.23;2.60;;;21.60;39.50;;;;;;5096613;28;20436;-65
2022/06/20 13:40:42;;;;;;;5.37;2.80;;;21.60;39.90;;;;;;5096305;28;20466;-65
2022/06/20 13:43:23;;;;;;;4.80;2.40;;;21.50;40.50;;;;;;5094870;28;20445;-66
2022/06/20 13:45:57;;;;;;;3.67;2.30;;;21.40;41.20;;;;;;5086081;28;20502;-66
2022/06/20 13:48:30;;;;;;;6.40;3.10;;;21.20;41.30;;;;;;5094163;28;20427;-65